sensor_id;sensor_type;location;lat;lon;timestamp;temperature;humidity
18974;DHT22;9621;48.690;9.466;2024-01-25T00:00:50;7.40;99.90
18974;DHT22;9621;48.690;9.466;2024-01-25T00:03:17;7.40;99.90
18974;DHT22;9621;48.690;9.466;2024-01-25T00:05:45;7.40;99.90
18974;DHT22;9621;48.690;9.466;2024-01-25T00:08:12;7.40;99.90
18974;DHT22;9621;48.690;9.466;2024-01-25T00:10:39;7.40;99.90
18974;DHT22;9621;48.690;9.466;2024-01-25T00:13:06;7.40;99.90
18974;DHT22;9621;48.690;9.466;2024-01-25T00:15:33;7.50;99.90
18974;DHT22;9621;48.690;9.466;2024-01-25T00:18:00;7.50;99.90
18974;DHT22;9621;48.690;9.466;2024-01-25T00:20:27;7.50;99.90
18974;DHT22;9621;48.690;9.466;2024-01-25T00:22:55;7.50;99.90
18974;DHT22;9621;48.690;9.466;2024-01-25T00:25:22;7.50;99.90
18974;DHT22;9621;48.690;9.466;2024-01-25T00:27:48;7.60;99.90
18974;DHT22;9621;48.690;9.466;2024-01-25T00:30:15;7.60;99.90
18974;DHT22;9621;48.690;9.466;2024-01-25T00:32:42;7.60;99.90
18974;DHT22;9621;48.690;9.466;2024-01-25T00:35:10;7.60;99.90
18974;DHT22;9621;48.690;9.466;2024-01-25T00:37:39;7.50;99.90
18974;DHT22;9621;48.690;9.466;2024-01-25T00:40:09;7.50;99.90
18974;DHT22;9621;48.690;9.466;2024-01-25T00:42:41;7.50;99.90
18974;DHT22;9621;48.690;9.466;2024-01-25T00:45:10;7.60;99.90
18974;DHT22;9621;48.690;9.466;2024-01-25T00:47:37;7.60;99.90
18974;DHT22;9621;48.690;9.466;2024-01-25T00:50:05;7.60;99.90
18974;DHT22;9621;48.690;9.466;2024-01-25T00:52:33;7.60;99.90
18974;DHT22;9621;48.690;9.466;2024-01-25T00:55:01;7.60;99.90
18974;DHT22;9621;48.690;9.466;2024-01-25T00:57:30;7.60;99.90
18974;DHT22;9621;48.690;9.466;2024-01-25T00:59:58;7.60;99.90
18974;DHT22;9621;48.690;9.466;2024-01-25T01:02:27;7.60;99.90
18974;DHT22;9621;48.690;9.466;2024-01-25T01:04:57;7.60;99.90
18974;DHT22;9621;48.690;9.466;2024-01-25T01:07:24;7.60;99.90
18974;DHT22;9621;48.690;9.466;2024-01-25T01:09:51;7.60;99.90
18974;DHT22;9621;48.690;9.466;2024-01-25T01:12:18;7.70;99.90
18974;DHT22;9621;48.690;9.466;2024-01-25T01:14:46;7.60;99.90
18974;DHT22;9621;48.690;9.466;2024-01-25T01:17:13;7.70;99.90
18974;DHT22;9621;48.690;9.466;2024-01-25T01:19:40;7.70;99.90
18974;DHT22;9621;48.690;9.466;2024-01-25T01:22:08;7.60;99.90
18974;DHT22;9621;48.690;9.466;2024-01-25T01:24:35;7.60;99.90
18974;DHT22;9621;48.690;9.466;2024-01-25T01:27:02;7.60;99.90
18974;DHT22;9621;48.690;9.466;2024-01-25T01:29:29;7.60;99.90
18974;DHT22;9621;48.690;9.466;2024-01-25T01:31:57;7.50;99.90
18974;DHT22;9621;48.690;9.466;2024-01-25T01:34:24;7.50;99.90
18974;DHT22;9621;48.690;9.466;2024-01-25T01:36:51;7.50;99.90
18974;DHT22;9621;48.690;9.466;2024-01-25T01:39:18;7.50;99.90
18974;DHT22;9621;48.690;9.466;2024-01-25T01:41:47;7.50;99.90
18974;DHT22;9621;48.690;9.466;2024-01-25T01:44:14;7.50;99.90
18974;DHT22;9621;48.690;9.466;2024-01-25T01:46:41;7.50;99.90
18974;DHT22;9621;48.690;9.466;2024-01-25T01:49:11;7.50;99.90
18974;DHT22;9621;48.690;9.466;2024-01-25T01:51:39;7.50;99.90
18974;DHT22;9621;48.690;9.466;2024-01-25T01:54:07;7.50;99.90
18974;DHT22;9621;48.690;9.466;2024-01-25T01:56:35;7.60;99.90
18974;DHT22;9621;48.690;9.466;2024-01-25T01:59:02;7.40;99.90
18974;DHT22;9621;48.690;9.466;2024-01-25T02:01:31;7.50;99.90
18974;DHT22;9621;48.690;9.466;2024-01-25T02:03:58;7.50;99.90
18974;DHT22;9621;48.690;9.466;2024-01-25T02:06:26;7.50;99.90
18974;DHT22;9621;48.690;9.466;2024-01-25T02:08:54;7.50;99.90
18974;DHT22;9621;48.690;9.466;2024-01-25T02:11:24;7.60;99.90
18974;DHT22;9621;48.690;9.466;2024-01-25T02:13:51;7.50;99.90
18974;DHT22;9621;48.690;9.466;2024-01-25T02:16:18;7.60;99.90
18974;DHT22;9621;48.690;9.466;2024-01-25T02:18:45;7.60;99.90
18974;DHT22;9621;48.690;9.466;2024-01-25T02:21:12;7.60;99.90
18974;DHT22;9621;48.690;9.466;2024-01-25T02:23:41;7.60;99.90
18974;DHT22;9621;48.690;9.466;2024-01-25T02:26:07;7.60;99.90
18974;DHT22;9621;48.690;9.466;2024-01-25T02:28:34;7.60;99.90
18974;DHT22;9621;48.690;9.466;2024-01-25T02:31:02;7.60;99.90
18974;DHT22;9621;48.690;9.466;2024-01-25T02:33:29;7.60;99.90
18974;DHT22;9621;48.690;9.466;2024-01-25T02:35:56;7.60;99.90
18974;DHT22;9621;48.690;9.466;2024-01-25T02:38:23;7.70;99.90
18974;DHT22;9621;48.690;9.466;2024-01-25T02:40:51;7.70;99.90
18974;DHT22;9621;48.690;9.466;2024-01-25T02:43:19;7.70;99.90
18974;DHT22;9621;48.690;9.466;2024-01-25T02:45:46;7.80;99.90
18974;DHT22;9621;48.690;9.466;2024-01-25T02:48:14;7.70;99.90
18974;DHT22;9621;48.690;9.466;2024-01-25T02:50:40;7.70;99.90
18974;DHT22;9621;48.690;9.466;2024-01-25T02:53:07;7.70;99.90
18974;DHT22;9621;48.690;9.466;2024-01-25T02:55:34;7.70;99.90
18974;DHT22;9621;48.690;9.466;2024-01-25T02:58:03;7.70;99.90
18974;DHT22;9621;48.690;9.466;2024-01-25T03:00:30;7.70;99.90
18974;DHT22;9621;48.690;9.466;2024-01-25T03:02:56;7.70;99.90
18974;DHT22;9621;48.690;9.466;2024-01-25T03:05:23;7.80;99.90
18974;DHT22;9621;48.690;9.466;2024-01-25T03:07:50;7.60;99.90
18974;DHT22;9621;48.690;9.466;2024-01-25T03:10:17;7.70;99.90
18974;DHT22;9621;48.690;9.466;2024-01-25T03:12:44;7.70;99.90
18974;DHT22;9621;48.690;9.466;2024-01-25T03:15:12;7.60;99.90
18974;DHT22;9621;48.690;9.466;2024-01-25T03:17:40;7.70;99.90
18974;DHT22;9621;48.690;9.466;2024-01-25T03:20:08;7.60;99.90
18974;DHT22;9621;48.690;9.466;2024-01-25T03:22:35;7.60;99.90
18974;DHT22;9621;48.690;9.466;2024-01-25T03:25:02;7.60;99.90
18974;DHT22;9621;48.690;9.466;2024-01-25T03:27:28;7.60;99.90
18974;DHT22;9621;48.690;9.466;2024-01-25T03:29:56;7.70;99.90
18974;DHT22;9621;48.690;9.466;2024-01-25T03:32:25;7.70;99.90
18974;DHT22;9621;48.690;9.466;2024-01-25T03:34:52;7.80;99.90
18974;DHT22;9621;48.690;9.466;2024-01-25T03:37:19;7.70;99.90
18974;DHT22;9621;48.690;9.466;2024-01-25T03:39:49;7.80;99.90
18974;DHT22;9621;48.690;9.466;2024-01-25T03:42:16;7.80;99.90
18974;DHT22;9621;48.690;9.466;2024-01-25T03:44:43;7.80;99.90
18974;DHT22;9621;48.690;9.466;2024-01-25T03:47:10;7.90;99.90
18974;DHT22;9621;48.690;9.466;2024-01-25T03:49:38;7.90;99.90
18974;DHT22;9621;48.690;9.466;2024-01-25T03:52:05;7.90;99.90
18974;DHT22;9621;48.690;9.466;2024-01-25T03:54:32;8.00;99.90
18974;DHT22;9621;48.690;9.466;2024-01-25T03:57:00;8.00;99.90
18974;DHT22;9621;48.690;9.466;2024-01-25T03:59:27;8.00;99.90
18974;DHT22;9621;48.690;9.466;2024-01-25T04:01:53;8.10;99.90
18974;DHT22;9621;48.690;9.466;2024-01-25T04:04:20;8.00;99.90
18974;DHT22;9621;48.690;9.466;2024-01-25T04:06:49;8.00;99.90
18974;DHT22;9621;48.690;9.466;2024-01-25T04:09:15;8.00;99.90
18974;DHT22;9621;48.690;9.466;2024-01-25T04:11:42;8.00;99.90
18974;DHT22;9621;48.690;9.466;2024-01-25T04:14:09;8.00;99.90
18974;DHT22;9621;48.690;9.466;2024-01-25T04:16:36;8.00;99.90
18974;DHT22;9621;48.690;9.466;2024-01-25T04:19:03;8.10;99.90
18974;DHT22;9621;48.690;9.466;2024-01-25T04:21:30;8.00;99.90
18974;DHT22;9621;48.690;9.466;2024-01-25T04:23:58;8.00;99.90
18974;DHT22;9621;48.690;9.466;2024-01-25T04:26:25;8.00;99.90
18974;DHT22;9621;48.690;9.466;2024-01-25T04:28:52;8.00;99.90
18974;DHT22;9621;48.690;9.466;2024-01-25T04:31:19;8.00;99.90
18974;DHT22;9621;48.690;9.466;2024-01-25T04:33:46;8.00;99.90
18974;DHT22;9621;48.690;9.466;2024-01-25T04:36:12;7.90;99.90
18974;DHT22;9621;48.690;9.466;2024-01-25T04:38:39;8.00;99.90
18974;DHT22;9621;48.690;9.466;2024-01-25T04:41:08;7.90;99.90
18974;DHT22;9621;48.690;9.466;2024-01-25T04:43:35;7.90;99.90
18974;DHT22;9621;48.690;9.466;2024-01-25T04:46:03;7.90;99.90
18974;DHT22;9621;48.690;9.466;2024-01-25T04:48:30;7.90;99.90
18974;DHT22;9621;48.690;9.466;2024-01-25T04:50:57;7.90;99.90
18974;DHT22;9621;48.690;9.466;2024-01-25T04:53:24;7.80;99.90
18974;DHT22;9621;48.690;9.466;2024-01-25T04:55:53;7.90;99.90
18974;DHT22;9621;48.690;9.466;2024-01-25T04:58:22;7.80;99.90
18974;DHT22;9621;48.690;9.466;2024-01-25T05:00:48;7.80;99.90
18974;DHT22;9621;48.690;9.466;2024-01-25T05:03:16;7.80;99.90
18974;DHT22;9621;48.690;9.466;2024-01-25T05:05:43;7.90;99.90
18974;DHT22;9621;48.690;9.466;2024-01-25T05:08:10;7.80;99.90
18974;DHT22;9621;48.690;9.466;2024-01-25T05:10:37;7.80;99.90
18974;DHT22;9621;48.690;9.466;2024-01-25T05:13:04;7.80;99.90
18974;DHT22;9621;48.690;9.466;2024-01-25T05:15:32;7.80;99.90
18974;DHT22;9621;48.690;9.466;2024-01-25T05:17:59;7.70;99.90
18974;DHT22;9621;48.690;9.466;2024-01-25T05:20:26;7.70;99.90
18974;DHT22;9621;48.690;9.466;2024-01-25T05:22:58;7.70;99.90
18974;DHT22;9621;48.690;9.466;2024-01-25T05:25:25;7.60;99.90
18974;DHT22;9621;48.690;9.466;2024-01-25T05:27:53;7.70;99.90
18974;DHT22;9621;48.690;9.466;2024-01-25T05:30:20;7.60;99.90
18974;DHT22;9621;48.690;9.466;2024-01-25T05:32:48;7.60;99.90
18974;DHT22;9621;48.690;9.466;2024-01-25T05:35:16;7.50;99.90
18974;DHT22;9621;48.690;9.466;2024-01-25T05:37:44;7.40;99.90
18974;DHT22;9621;48.690;9.466;2024-01-25T05:40:11;7.40;99.90
18974;DHT22;9621;48.690;9.466;2024-01-25T05:42:38;7.30;99.90
18974;DHT22;9621;48.690;9.466;2024-01-25T05:45:06;7.20;99.90
18974;DHT22;9621;48.690;9.466;2024-01-25T05:47:34;7.20;99.90
18974;DHT22;9621;48.690;9.466;2024-01-25T05:50:03;7.00;99.90
18974;DHT22;9621;48.690;9.466;2024-01-25T05:52:30;7.00;99.90
18974;DHT22;9621;48.690;9.466;2024-01-25T05:54:57;6.90;99.90
18974;DHT22;9621;48.690;9.466;2024-01-25T05:57:24;6.80;99.90
18974;DHT22;9621;48.690;9.466;2024-01-25T05:59:51;6.80;99.90
18974;DHT22;9621;48.690;9.466;2024-01-25T06:02:18;6.70;99.90
18974;DHT22;9621;48.690;9.466;2024-01-25T06:04:45;6.60;99.90
18974;DHT22;9621;48.690;9.466;2024-01-25T06:07:14;6.50;99.90
18974;DHT22;9621;48.690;9.466;2024-01-25T06:09:41;6.40;99.90
18974;DHT22;9621;48.690;9.466;2024-01-25T06:12:08;6.30;99.90
18974;DHT22;9621;48.690;9.466;2024-01-25T06:14:35;6.20;99.90
18974;DHT22;9621;48.690;9.466;2024-01-25T06:17:02;6.10;99.90
18974;DHT22;9621;48.690;9.466;2024-01-25T06:19:29;6.00;99.90
18974;DHT22;9621;48.690;9.466;2024-01-25T06:21:55;5.90;99.90
18974;DHT22;9621;48.690;9.466;2024-01-25T06:24:24;5.90;99.90
18974;DHT22;9621;48.690;9.466;2024-01-25T06:26:51;5.80;99.90
18974;DHT22;9621;48.690;9.466;2024-01-25T06:29:17;5.70;99.90
18974;DHT22;9621;48.690;9.466;2024-01-25T06:31:45;5.60;99.90
18974;DHT22;9621;48.690;9.466;2024-01-25T06:34:12;5.60;99.90
18974;DHT22;9621;48.690;9.466;2024-01-25T06:36:39;5.50;99.90
18974;DHT22;9621;48.690;9.466;2024-01-25T06:39:06;5.40;99.90
18974;DHT22;9621;48.690;9.466;2024-01-25T06:41:35;5.30;99.90
18974;DHT22;9621;48.690;9.466;2024-01-25T06:44:02;5.20;99.90
18974;DHT22;9621;48.690;9.466;2024-01-25T06:46:29;5.00;99.90
18974;DHT22;9621;48.690;9.466;2024-01-25T06:48:56;5.00;99.90
18974;DHT22;9621;48.690;9.466;2024-01-25T06:51:23;4.90;99.90
18974;DHT22;9621;48.690;9.466;2024-01-25T06:53:50;4.90;99.90
18974;DHT22;9621;48.690;9.466;2024-01-25T06:56:17;5.00;99.90
18974;DHT22;9621;48.690;9.466;2024-01-25T06:58:45;4.80;99.90
18974;DHT22;9621;48.690;9.466;2024-01-25T07:01:20;5.30;99.90
18974;DHT22;9621;48.690;9.466;2024-01-25T07:03:50;4.80;99.90
18974;DHT22;9621;48.690;9.466;2024-01-25T07:06:17;4.70;99.90
18974;DHT22;9621;48.690;9.466;2024-01-25T07:08:44;4.70;99.90
18974;DHT22;9621;48.690;9.466;2024-01-25T07:11:11;4.80;99.90
18974;DHT22;9621;48.690;9.466;2024-01-25T07:13:38;4.60;99.90
18974;DHT22;9621;48.690;9.466;2024-01-25T07:16:08;4.70;99.90
18974;DHT22;9621;48.690;9.466;2024-01-25T07:18:35;4.60;99.90
18974;DHT22;9621;48.690;9.466;2024-01-25T07:21:02;4.50;99.90
18974;DHT22;9621;48.690;9.466;2024-01-25T07:23:29;4.50;99.90
18974;DHT22;9621;48.690;9.466;2024-01-25T07:25:56;4.50;99.90
18974;DHT22;9621;48.690;9.466;2024-01-25T07:28:23;4.60;99.90
18974;DHT22;9621;48.690;9.466;2024-01-25T07:30:50;4.50;99.90
18974;DHT22;9621;48.690;9.466;2024-01-25T07:33:18;4.50;99.90
18974;DHT22;9621;48.690;9.466;2024-01-25T07:35:45;4.50;99.90
18974;DHT22;9621;48.690;9.466;2024-01-25T07:38:13;4.50;99.90
18974;DHT22;9621;48.690;9.466;2024-01-25T07:40:40;4.50;99.90
18974;DHT22;9621;48.690;9.466;2024-01-25T07:43:07;4.40;99.90
18974;DHT22;9621;48.690;9.466;2024-01-25T07:45:34;4.50;99.90
18974;DHT22;9621;48.690;9.466;2024-01-25T07:48:03;4.40;99.90
18974;DHT22;9621;48.690;9.466;2024-01-25T07:50:31;5.30;99.90
18974;DHT22;9621;48.690;9.466;2024-01-25T07:52:58;4.50;99.90
18974;DHT22;9621;48.690;9.466;2024-01-25T07:55:28;4.40;99.90
18974;DHT22;9621;48.690;9.466;2024-01-25T07:57:55;4.50;99.90
18974;DHT22;9621;48.690;9.466;2024-01-25T08:00:22;4.60;99.90
18974;DHT22;9621;48.690;9.466;2024-01-25T08:02:49;4.70;99.90
18974;DHT22;9621;48.690;9.466;2024-01-25T08:05:16;4.90;99.90
18974;DHT22;9621;48.690;9.466;2024-01-25T08:07:45;5.00;99.90
18974;DHT22;9621;48.690;9.466;2024-01-25T08:10:12;5.30;99.90
18974;DHT22;9621;48.690;9.466;2024-01-25T08:12:39;5.60;99.90
18974;DHT22;9621;48.690;9.466;2024-01-25T08:15:09;6.10;99.90
18974;DHT22;9621;48.690;9.466;2024-01-25T08:17:37;6.60;99.90
18974;DHT22;9621;48.690;9.466;2024-01-25T08:20:05;7.00;99.90
18974;DHT22;9621;48.690;9.466;2024-01-25T08:22:33;7.50;99.90
18974;DHT22;9621;48.690;9.466;2024-01-25T08:25:01;7.90;99.90
18974;DHT22;9621;48.690;9.466;2024-01-25T08:27:30;8.30;99.90
18974;DHT22;9621;48.690;9.466;2024-01-25T08:29:57;8.60;99.90
18974;DHT22;9621;48.690;9.466;2024-01-25T08:32:23;8.90;99.90
18974;DHT22;9621;48.690;9.466;2024-01-25T08:34:50;9.10;99.90
18974;DHT22;9621;48.690;9.466;2024-01-25T08:37:17;9.40;99.90
18974;DHT22;9621;48.690;9.466;2024-01-25T08:39:44;9.50;99.90
18974;DHT22;9621;48.690;9.466;2024-01-25T08:42:16;9.60;99.90
18974;DHT22;9621;48.690;9.466;2024-01-25T08:44:43;9.70;99.90
18974;DHT22;9621;48.690;9.466;2024-01-25T08:47:15;9.80;99.90
18974;DHT22;9621;48.690;9.466;2024-01-25T08:49:42;9.80;99.90
18974;DHT22;9621;48.690;9.466;2024-01-25T08:52:09;9.80;99.90
18974;DHT22;9621;48.690;9.466;2024-01-25T08:54:36;9.90;99.90
18974;DHT22;9621;48.690;9.466;2024-01-25T08:57:04;9.90;99.90
18974;DHT22;9621;48.690;9.466;2024-01-25T08:59:33;10.00;99.90
18974;DHT22;9621;48.690;9.466;2024-01-25T09:02:03;10.10;99.90
18974;DHT22;9621;48.690;9.466;2024-01-25T09:04:30;10.20;99.90
18974;DHT22;9621;48.690;9.466;2024-01-25T09:06:57;10.20;99.90
18974;DHT22;9621;48.690;9.466;2024-01-25T09:09:24;10.20;99.90
18974;DHT22;9621;48.690;9.466;2024-01-25T09:11:51;10.20;99.90
18974;DHT22;9621;48.690;9.466;2024-01-25T09:14:19;10.20;99.90
18974;DHT22;9621;48.690;9.466;2024-01-25T09:16:48;10.20;99.90
18974;DHT22;9621;48.690;9.466;2024-01-25T09:19:15;10.30;99.90
18974;DHT22;9621;48.690;9.466;2024-01-25T09:21:42;10.40;99.90
18974;DHT22;9621;48.690;9.466;2024-01-25T09:24:09;10.50;99.90
18974;DHT22;9621;48.690;9.466;2024-01-25T09:26:36;10.70;99.90
18974;DHT22;9621;48.690;9.466;2024-01-25T09:29:03;10.90;99.90
18974;DHT22;9621;48.690;9.466;2024-01-25T09:31:30;11.20;99.90
18974;DHT22;9621;48.690;9.466;2024-01-25T09:33:58;11.40;99.90
18974;DHT22;9621;48.690;9.466;2024-01-25T09:36:25;11.70;99.90
18974;DHT22;9621;48.690;9.466;2024-01-25T09:38:52;12.10;99.90
18974;DHT22;9621;48.690;9.466;2024-01-25T09:41:19;12.50;99.90
18974;DHT22;9621;48.690;9.466;2024-01-25T09:43:46;12.90;99.90
18974;DHT22;9621;48.690;9.466;2024-01-25T09:46:14;13.30;99.90
18974;DHT22;9621;48.690;9.466;2024-01-25T09:48:42;13.60;99.90
18974;DHT22;9621;48.690;9.466;2024-01-25T09:51:13;13.90;99.90
18974;DHT22;9621;48.690;9.466;2024-01-25T09:53:41;14.10;99.90
18974;DHT22;9621;48.690;9.466;2024-01-25T09:56:09;14.20;99.90
18974;DHT22;9621;48.690;9.466;2024-01-25T09:58:40;14.20;99.90
18974;DHT22;9621;48.690;9.466;2024-01-25T10:01:12;14.20;99.90
18974;DHT22;9621;48.690;9.466;2024-01-25T10:03:42;14.10;99.90
18974;DHT22;9621;48.690;9.466;2024-01-25T10:06:11;14.10;99.90
18974;DHT22;9621;48.690;9.466;2024-01-25T10:08:39;14.20;99.90
18974;DHT22;9621;48.690;9.466;2024-01-25T10:11:07;14.10;99.90
18974;DHT22;9621;48.690;9.466;2024-01-25T10:13:40;14.10;99.90
18974;DHT22;9621;48.690;9.466;2024-01-25T10:16:10;14.20;99.90
18974;DHT22;9621;48.690;9.466;2024-01-25T10:18:38;14.20;99.90
18974;DHT22;9621;48.690;9.466;2024-01-25T10:21:06;14.20;99.90
18974;DHT22;9621;48.690;9.466;2024-01-25T10:23:33;14.00;99.90
18974;DHT22;9621;48.690;9.466;2024-01-25T10:26:04;13.80;99.90
18974;DHT22;9621;48.690;9.466;2024-01-25T10:28:31;13.60;99.90
18974;DHT22;9621;48.690;9.466;2024-01-25T10:31:00;13.50;99.90
18974;DHT22;9621;48.690;9.466;2024-01-25T10:33:30;13.60;99.90
18974;DHT22;9621;48.690;9.466;2024-01-25T10:35:57;13.90;99.90
18974;DHT22;9621;48.690;9.466;2024-01-25T10:38:29;14.10;99.90
18974;DHT22;9621;48.690;9.466;2024-01-25T10:40:58;14.30;99.90
18974;DHT22;9621;48.690;9.466;2024-01-25T10:43:28;14.30;99.90
18974;DHT22;9621;48.690;9.466;2024-01-25T10:45:56;14.40;99.90
18974;DHT22;9621;48.690;9.466;2024-01-25T10:48:24;14.70;99.90
18974;DHT22;9621;48.690;9.466;2024-01-25T10:50:51;14.80;99.90
18974;DHT22;9621;48.690;9.466;2024-01-25T10:53:19;14.80;99.90
18974;DHT22;9621;48.690;9.466;2024-01-25T10:55:46;14.60;99.90
18974;DHT22;9621;48.690;9.466;2024-01-25T10:58:13;14.40;99.90
18974;DHT22;9621;48.690;9.466;2024-01-25T11:00:48;14.30;99.90
18974;DHT22;9621;48.690;9.466;2024-01-25T11:03:18;14.30;99.90
18974;DHT22;9621;48.690;9.466;2024-01-25T11:05:45;14.30;99.90
18974;DHT22;9621;48.690;9.466;2024-01-25T11:08:18;14.20;99.90
18974;DHT22;9621;48.690;9.466;2024-01-25T11:10:50;14.30;99.90
18974;DHT22;9621;48.690;9.466;2024-01-25T11:13:23;14.50;99.90
18974;DHT22;9621;48.690;9.466;2024-01-25T11:15:52;14.60;99.90
18974;DHT22;9621;48.690;9.466;2024-01-25T11:18:19;14.70;99.90
18974;DHT22;9621;48.690;9.466;2024-01-25T11:20:47;14.90;99.90
18974;DHT22;9621;48.690;9.466;2024-01-25T11:23:16;15.20;99.90
18974;DHT22;9621;48.690;9.466;2024-01-25T11:25:45;15.50;99.90
18974;DHT22;9621;48.690;9.466;2024-01-25T11:28:14;15.80;99.90
18974;DHT22;9621;48.690;9.466;2024-01-25T11:30:42;16.20;99.90
18974;DHT22;9621;48.690;9.466;2024-01-25T11:33:11;16.60;99.90
18974;DHT22;9621;48.690;9.466;2024-01-25T11:35:39;16.90;99.90
18974;DHT22;9621;48.690;9.466;2024-01-25T11:38:09;17.40;99.90
18974;DHT22;9621;48.690;9.466;2024-01-25T11:40:36;17.80;99.90
18974;DHT22;9621;48.690;9.466;2024-01-25T11:43:05;18.10;99.90
18974;DHT22;9621;48.690;9.466;2024-01-25T11:45:36;18.40;99.90
18974;DHT22;9621;48.690;9.466;2024-01-25T11:48:08;18.50;99.90
18974;DHT22;9621;48.690;9.466;2024-01-25T11:50:36;18.60;99.90
18974;DHT22;9621;48.690;9.466;2024-01-25T11:53:03;18.50;99.90
18974;DHT22;9621;48.690;9.466;2024-01-25T11:55:30;18.50;99.90
18974;DHT22;9621;48.690;9.466;2024-01-25T11:57:57;18.30;99.90
18974;DHT22;9621;48.690;9.466;2024-01-25T12:00:24;18.30;99.90
18974;DHT22;9621;48.690;9.466;2024-01-25T12:02:51;18.20;99.90
18974;DHT22;9621;48.690;9.466;2024-01-25T12:05:19;18.30;99.90
18974;DHT22;9621;48.690;9.466;2024-01-25T12:07:48;18.40;99.90
18974;DHT22;9621;48.690;9.466;2024-01-25T12:10:16;18.50;99.90
18974;DHT22;9621;48.690;9.466;2024-01-25T12:12:43;18.40;99.90
18974;DHT22;9621;48.690;9.466;2024-01-25T12:15:10;18.30;99.90
18974;DHT22;9621;48.690;9.466;2024-01-25T12:17:38;18.00;99.90
18974;DHT22;9621;48.690;9.466;2024-01-25T12:20:06;17.70;99.90
18974;DHT22;9621;48.690;9.466;2024-01-25T12:22:37;17.30;99.90
18974;DHT22;9621;48.690;9.466;2024-01-25T12:25:09;17.00;99.90
18974;DHT22;9621;48.690;9.466;2024-01-25T12:27:39;16.80;99.90
18974;DHT22;9621;48.690;9.466;2024-01-25T12:30:07;16.70;99.90
18974;DHT22;9621;48.690;9.466;2024-01-25T12:32:35;16.70;99.90
18974;DHT22;9621;48.690;9.466;2024-01-25T12:35:02;16.90;99.90
18974;DHT22;9621;48.690;9.466;2024-01-25T12:37:29;17.10;99.90
18974;DHT22;9621;48.690;9.466;2024-01-25T12:39:56;17.20;99.90
18974;DHT22;9621;48.690;9.466;2024-01-25T12:42:24;17.20;99.90
18974;DHT22;9621;48.690;9.466;2024-01-25T12:44:52;17.00;99.90
18974;DHT22;9621;48.690;9.466;2024-01-25T12:47:19;16.80;99.90
18974;DHT22;9621;48.690;9.466;2024-01-25T12:49:46;16.40;99.90
18974;DHT22;9621;48.690;9.466;2024-01-25T12:52:14;16.00;99.90
18974;DHT22;9621;48.690;9.466;2024-01-25T12:54:41;15.60;99.90
18974;DHT22;9621;48.690;9.466;2024-01-25T12:57:08;15.50;99.90
18974;DHT22;9621;48.690;9.466;2024-01-25T12:59:37;15.60;99.90
18974;DHT22;9621;48.690;9.466;2024-01-25T13:02:05;15.80;99.90
18974;DHT22;9621;48.690;9.466;2024-01-25T13:04:33;15.90;99.90
18974;DHT22;9621;48.690;9.466;2024-01-25T13:07:00;15.80;99.90
18974;DHT22;9621;48.690;9.466;2024-01-25T13:09:28;15.50;99.90
18974;DHT22;9621;48.690;9.466;2024-01-25T13:11:59;15.20;99.90
18974;DHT22;9621;48.690;9.466;2024-01-25T13:14:26;14.90;99.90
18974;DHT22;9621;48.690;9.466;2024-01-25T13:16:55;14.60;99.90
18974;DHT22;9621;48.690;9.466;2024-01-25T13:19:23;14.20;99.90
18974;DHT22;9621;48.690;9.466;2024-01-25T13:21:53;13.90;99.90
18974;DHT22;9621;48.690;9.466;2024-01-25T13:24:20;13.60;99.90
18974;DHT22;9621;48.690;9.466;2024-01-25T13:26:50;13.40;99.90
18974;DHT22;9621;48.690;9.466;2024-01-25T13:29:17;13.10;99.90
18974;DHT22;9621;48.690;9.466;2024-01-25T13:31:44;12.90;99.90
18974;DHT22;9621;48.690;9.466;2024-01-25T13:34:15;12.80;99.90
18974;DHT22;9621;48.690;9.466;2024-01-25T13:36:42;12.60;99.90
18974;DHT22;9621;48.690;9.466;2024-01-25T13:39:09;12.60;99.90
18974;DHT22;9621;48.690;9.466;2024-01-25T13:41:36;12.50;99.90
18974;DHT22;9621;48.690;9.466;2024-01-25T13:44:03;12.40;99.90
18974;DHT22;9621;48.690;9.466;2024-01-25T13:46:30;12.30;99.90
18974;DHT22;9621;48.690;9.466;2024-01-25T13:48:57;12.20;99.90
18974;DHT22;9621;48.690;9.466;2024-01-25T13:51:28;12.00;99.90
18974;DHT22;9621;48.690;9.466;2024-01-25T13:53:55;12.00;99.90
18974;DHT22;9621;48.690;9.466;2024-01-25T13:56:21;11.80;99.90
18974;DHT22;9621;48.690;9.466;2024-01-25T13:58:48;11.60;99.90
18974;DHT22;9621;48.690;9.466;2024-01-25T14:01:19;11.40;99.90
18974;DHT22;9621;48.690;9.466;2024-01-25T14:03:48;11.30;99.90
18974;DHT22;9621;48.690;9.466;2024-01-25T14:06:16;11.20;99.90
18974;DHT22;9621;48.690;9.466;2024-01-25T14:08:44;11.00;99.90
18974;DHT22;9621;48.690;9.466;2024-01-25T14:11:11;10.90;99.90
18974;DHT22;9621;48.690;9.466;2024-01-25T14:13:38;10.80;99.90
18974;DHT22;9621;48.690;9.466;2024-01-25T14:16:05;10.70;99.90
18974;DHT22;9621;48.690;9.466;2024-01-25T14:18:37;10.60;99.90
18974;DHT22;9621;48.690;9.466;2024-01-25T14:21:04;10.50;99.90
18974;DHT22;9621;48.690;9.466;2024-01-25T14:23:31;10.40;99.90
18974;DHT22;9621;48.690;9.466;2024-01-25T14:25:59;10.40;99.90
18974;DHT22;9621;48.690;9.466;2024-01-25T14:28:26;10.30;99.90
18974;DHT22;9621;48.690;9.466;2024-01-25T14:30:53;10.30;99.90
18974;DHT22;9621;48.690;9.466;2024-01-25T14:33:20;10.20;99.90
18974;DHT22;9621;48.690;9.466;2024-01-25T14:35:47;10.20;99.90
18974;DHT22;9621;48.690;9.466;2024-01-25T14:38:14;10.20;99.90
18974;DHT22;9621;48.690;9.466;2024-01-25T14:40:41;10.10;99.90
18974;DHT22;9621;48.690;9.466;2024-01-25T14:43:09;10.10;99.90
18974;DHT22;9621;48.690;9.466;2024-01-25T14:45:36;10.10;99.90
18974;DHT22;9621;48.690;9.466;2024-01-25T14:48:04;10.10;99.90
18974;DHT22;9621;48.690;9.466;2024-01-25T14:50:32;10.10;99.90
18974;DHT22;9621;48.690;9.466;2024-01-25T14:52:59;10.00;99.90
18974;DHT22;9621;48.690;9.466;2024-01-25T14:55:26;10.10;99.90
18974;DHT22;9621;48.690;9.466;2024-01-25T14:57:53;10.00;99.90
18974;DHT22;9621;48.690;9.466;2024-01-25T15:00:21;9.90;99.90
18974;DHT22;9621;48.690;9.466;2024-01-25T15:02:48;9.90;99.90
18974;DHT22;9621;48.690;9.466;2024-01-25T15:05:15;9.90;99.90
18974;DHT22;9621;48.690;9.466;2024-01-25T15:07:42;9.80;99.90
18974;DHT22;9621;48.690;9.466;2024-01-25T15:10:09;9.90;99.90
18974;DHT22;9621;48.690;9.466;2024-01-25T15:12:37;9.80;99.90
18974;DHT22;9621;48.690;9.466;2024-01-25T15:15:05;9.80;99.90
18974;DHT22;9621;48.690;9.466;2024-01-25T15:17:34;9.80;99.90
18974;DHT22;9621;48.690;9.466;2024-01-25T15:20:01;9.80;99.90
18974;DHT22;9621;48.690;9.466;2024-01-25T15:22:28;9.70;99.90
18974;DHT22;9621;48.690;9.466;2024-01-25T15:24:56;9.70;99.90
18974;DHT22;9621;48.690;9.466;2024-01-25T15:27:23;9.60;99.90
18974;DHT22;9621;48.690;9.466;2024-01-25T15:29:50;9.60;99.90
18974;DHT22;9621;48.690;9.466;2024-01-25T15:32:17;9.60;99.90
18974;DHT22;9621;48.690;9.466;2024-01-25T15:34:45;9.50;99.90
18974;DHT22;9621;48.690;9.466;2024-01-25T15:37:13;9.50;99.90
18974;DHT22;9621;48.690;9.466;2024-01-25T15:39:40;9.50;99.90
18974;DHT22;9621;48.690;9.466;2024-01-25T15:42:09;9.50;99.90
18974;DHT22;9621;48.690;9.466;2024-01-25T15:44:36;9.40;99.90
18974;DHT22;9621;48.690;9.466;2024-01-25T15:47:03;9.40;99.90
18974;DHT22;9621;48.690;9.466;2024-01-25T15:49:30;9.40;99.90
18974;DHT22;9621;48.690;9.466;2024-01-25T15:51:59;9.40;99.90
18974;DHT22;9621;48.690;9.466;2024-01-25T15:54:26;9.30;99.90
18974;DHT22;9621;48.690;9.466;2024-01-25T15:56:53;9.30;99.90